createdAt,value
2023-05-03T00:00:59.010Z,21.70
2023-05-03T00:01:59.712Z,19.60
2023-05-03T00:02:59.821Z,20.30
2023-05-03T00:03:27.032Z,23.00
2023-05-03T00:04:59.869Z,23.50
2023-05-03T00:05:59.341Z,22.20
2023-05-03T00:06:59.869Z,24.60
2023-05-03T00:07:59.872Z,26.60
2023-05-03T00:08:26.985Z,27.40
2023-05-03T00:10:00.115Z,21.60
2023-05-03T00:10:59.415Z,24.40
2023-05-03T00:11:58.944Z,25.60
2023-05-03T00:12:27.008Z,22.40
2023-05-03T00:13:26.993Z,24.00
2023-05-03T00:14:26.965Z,21.40
2023-05-03T00:15:26.967Z,19.80
2023-05-03T00:16:26.979Z,18.80
2023-05-03T00:17:26.973Z,19.30
2023-05-03T00:18:26.964Z,20.10
2023-05-03T00:19:31.561Z,22.60
2023-05-03T00:20:28.969Z,23.00
2023-05-03T00:21:26.924Z,15.90
2023-05-03T00:22:26.929Z,22.00
2023-05-03T00:23:26.907Z,19.10
2023-05-03T00:24:26.905Z,20.50
2023-05-03T00:25:26.883Z,23.40
2023-05-03T00:26:26.882Z,22.30
2023-05-03T00:27:26.898Z,20.90
2023-05-03T00:28:26.905Z,22.90
2023-05-03T00:29:26.847Z,22.70
2023-05-03T00:30:26.877Z,19.40
2023-05-03T00:31:26.890Z,21.30
2023-05-03T00:32:26.868Z,19.40
2023-05-03T00:33:26.873Z,19.40
2023-05-03T00:34:26.810Z,19.40
2023-05-03T00:35:26.814Z,20.40
2023-05-03T00:36:26.812Z,22.00
2023-05-03T00:37:26.798Z,20.80
2023-05-03T00:38:26.814Z,18.70
2023-05-03T00:39:26.816Z,21.50
2023-05-03T00:40:26.815Z,22.50
2023-05-03T00:41:26.789Z,22.80
2023-05-03T00:42:26.764Z,20.30
2023-05-03T00:43:26.750Z,19.70
2023-05-03T00:44:26.766Z,21.20
2023-05-03T00:45:26.748Z,22.00
2023-05-03T00:46:26.737Z,22.00
2023-05-03T00:47:26.751Z,23.00
2023-05-03T00:48:26.748Z,22.40
2023-05-03T00:49:26.745Z,17.90
2023-05-03T00:50:26.714Z,21.40
2023-05-03T00:51:26.700Z,22.80
2023-05-03T00:52:26.707Z,18.90
2023-05-03T00:53:26.672Z,23.10
2023-05-03T00:54:26.670Z,22.00
2023-05-03T00:55:26.678Z,19.30
2023-05-03T00:56:26.658Z,21.20
2023-05-03T00:57:26.659Z,16.40
2023-05-03T00:58:26.682Z,20.20
2023-05-03T00:59:26.651Z,24.80
2023-05-03T01:00:26.664Z,18.50
2023-05-03T01:01:26.671Z,24.10
2023-05-03T01:02:26.690Z,18.90
2023-05-03T01:03:26.794Z,16.40
2023-05-03T01:04:26.619Z,20.30
2023-05-03T01:05:26.617Z,19.60
2023-05-03T01:06:26.675Z,20.00
2023-05-03T01:07:26.598Z,18.20
2023-05-03T01:08:26.611Z,18.70
2023-05-03T01:09:26.585Z,21.40
2023-05-03T01:10:26.553Z,22.20
2023-05-03T01:11:28.548Z,19.30
2023-05-03T01:12:26.579Z,18.60
2023-05-03T01:13:26.549Z,20.00
2023-05-03T01:14:26.536Z,20.70
2023-05-03T01:15:26.563Z,22.80
2023-05-03T01:16:26.536Z,20.30
2023-05-03T01:17:27.566Z,20.00
2023-05-03T01:18:26.505Z,23.80
2023-05-03T01:19:26.510Z,21.60
2023-05-03T01:20:26.492Z,20.10
2023-05-03T01:21:26.476Z,23.00
2023-05-03T01:22:26.489Z,20.40
2023-05-03T01:23:26.475Z,18.80
2023-05-03T01:24:26.503Z,20.40
2023-05-03T01:25:26.456Z,20.30
2023-05-03T01:26:26.438Z,18.40
2023-05-03T01:27:26.471Z,21.90
2023-05-03T01:28:26.471Z,21.40
2023-05-03T01:29:26.412Z,21.90
2023-05-03T01:30:26.422Z,20.00
2023-05-03T01:31:26.512Z,22.50
2023-05-03T01:32:26.447Z,17.40
2023-05-03T01:33:26.378Z,25.40
2023-05-03T01:34:26.386Z,22.70
2023-05-03T01:35:26.362Z,20.00
2023-05-03T01:36:26.350Z,24.70
2023-05-03T01:37:26.364Z,22.30
2023-05-03T01:38:26.360Z,21.20
2023-05-03T01:39:26.339Z,21.60
2023-05-03T01:40:26.312Z,19.80
2023-05-03T01:41:26.319Z,23.00
2023-05-03T01:42:26.330Z,21.30
2023-05-03T01:43:26.346Z,19.20
2023-05-03T01:44:26.331Z,22.50
2023-05-03T01:45:26.297Z,23.30
2023-05-03T01:46:26.413Z,22.20
2023-05-03T01:47:26.302Z,17.30
2023-05-03T01:48:26.280Z,22.90
2023-05-03T01:49:26.298Z,19.70
2023-05-03T01:50:26.279Z,20.80
2023-05-03T01:51:26.294Z,23.80
2023-05-03T01:52:26.238Z,23.80
2023-05-03T01:53:26.225Z,27.70
2023-05-03T01:54:27.294Z,24.80
2023-05-03T01:55:26.211Z,20.90
2023-05-03T01:56:26.219Z,17.90
2023-05-03T01:57:26.220Z,22.80
2023-05-03T01:58:26.210Z,28.40
2023-05-03T01:59:26.216Z,20.80
2023-05-03T02:00:26.211Z,25.10
2023-05-03T02:01:26.197Z,24.60
2023-05-03T02:02:26.217Z,21.90
2023-05-03T02:03:26.156Z,23.80
2023-05-03T02:04:26.209Z,20.50
2023-05-03T02:05:26.173Z,21.80
2023-05-03T02:06:26.253Z,24.20
2023-05-03T02:07:26.155Z,20.30
2023-05-03T02:08:26.112Z,24.80
2023-05-03T02:09:26.119Z,25.20
2023-05-03T02:10:26.104Z,23.20
2023-05-03T02:11:26.086Z,17.80
2023-05-03T02:12:26.108Z,22.70
2023-05-03T02:13:26.069Z,21.90
2023-05-03T02:14:26.060Z,23.90
2023-05-03T02:15:26.070Z,20.80
2023-05-03T02:16:26.096Z,24.50
2023-05-03T02:17:26.093Z,19.70
2023-05-03T02:18:26.059Z,22.40
2023-05-03T02:19:26.040Z,20.90
2023-05-03T02:20:26.009Z,25.20
2023-05-03T02:21:26.056Z,22.00
2023-05-03T02:22:26.022Z,25.70
2023-05-03T02:23:25.997Z,24.70
2023-05-03T02:24:26.004Z,22.10
2023-05-03T02:25:27.458Z,21.30
2023-05-03T02:26:25.990Z,23.10
2023-05-03T02:27:26.003Z,23.50
2023-05-03T02:28:25.957Z,20.90
2023-05-03T02:29:25.942Z,20.50
2023-05-03T02:30:25.965Z,20.20
2023-05-03T02:31:26.029Z,20.00
2023-05-03T02:32:25.987Z,25.50
2023-05-03T02:33:25.904Z,20.80
2023-05-03T02:34:25.952Z,21.20
2023-05-03T02:35:25.909Z,18.50
2023-05-03T02:36:25.899Z,18.90
2023-05-03T02:37:25.901Z,23.30
2023-05-03T02:38:25.912Z,23.40
2023-05-03T02:39:25.891Z,21.90
2023-05-03T02:40:25.845Z,20.60
2023-05-03T02:41:25.838Z,21.20
2023-05-03T02:42:25.864Z,22.80
2023-05-03T02:43:25.842Z,23.20
2023-05-03T02:44:25.857Z,22.60
2023-05-03T02:45:25.829Z,19.20
2023-05-03T02:46:25.875Z,18.70
2023-05-03T02:47:26.646Z,21.00
2023-05-03T02:48:57.751Z,19.80
2023-05-03T02:49:25.823Z,25.50
2023-05-03T02:50:25.778Z,25.40
2023-05-03T02:51:25.774Z,21.70
2023-05-03T02:52:25.770Z,21.40
2023-05-03T02:53:25.755Z,18.90
2023-05-03T02:54:25.774Z,22.10
2023-05-03T02:55:25.736Z,24.20
2023-05-03T02:56:25.748Z,19.40
2023-05-03T02:57:25.769Z,20.70
2023-05-03T02:58:25.756Z,20.70
2023-05-03T02:59:26.630Z,26.70
2023-05-03T03:00:25.756Z,28.20
2023-05-03T03:01:25.728Z,23.50
2023-05-03T03:02:25.753Z,22.30
2023-05-03T03:03:25.833Z,21.70
2023-05-03T03:04:25.668Z,27.50
2023-05-03T03:05:25.675Z,25.10
2023-05-03T03:06:25.720Z,21.40
2023-05-03T03:07:25.659Z,25.00
2023-05-03T03:08:26.665Z,22.40
2023-05-03T03:09:58.493Z,22.20
2023-05-03T03:10:25.663Z,25.10
2023-05-03T03:11:25.619Z,25.90
2023-05-03T03:12:25.607Z,25.50
2023-05-03T03:13:25.596Z,27.40
2023-05-03T03:14:25.605Z,29.00
2023-05-03T03:15:25.587Z,34.50
2023-05-03T03:16:25.648Z,26.60
2023-05-03T03:17:26.130Z,24.80
2023-05-03T03:18:25.553Z,31.90
2023-05-03T03:19:25.566Z,25.10
2023-05-03T03:20:25.588Z,25.50
2023-05-03T03:21:26.105Z,27.20
2023-05-03T03:22:25.579Z,24.60
2023-05-03T03:23:25.530Z,31.20
2023-05-03T03:24:25.522Z,31.10
2023-05-03T03:25:25.529Z,27.60
2023-05-03T03:26:26.102Z,27.40
2023-05-03T03:27:25.520Z,27.00
2023-05-03T03:28:25.529Z,24.20
2023-05-03T03:29:25.538Z,24.70
2023-05-03T03:30:25.469Z,23.00
2023-05-03T03:31:57.524Z,28.60
2023-05-03T03:32:25.457Z,22.30
2023-05-03T03:33:25.558Z,23.80
2023-05-03T03:34:25.477Z,29.20
2023-05-03T03:35:25.486Z,33.50
2023-05-03T03:36:25.432Z,24.90
2023-05-03T03:37:25.503Z,26.40
2023-05-03T03:38:25.427Z,23.30
2023-05-03T03:39:25.453Z,25.90
2023-05-03T03:40:25.484Z,20.80
2023-05-03T03:41:26.145Z,24.40
2023-05-03T03:42:25.388Z,23.50
2023-05-03T03:43:26.151Z,25.30
2023-05-03T03:44:25.675Z,22.90
2023-05-03T03:45:25.381Z,25.00
2023-05-03T03:46:25.405Z,22.20
2023-05-03T04:02:36.200Z,25.70
2023-05-03T04:03:36.197Z,28.50
2023-05-03T04:04:36.179Z,29.90
2023-05-03T04:05:36.068Z,30.60
2023-05-03T04:06:36.112Z,28.90
2023-05-03T04:07:36.067Z,31.80
2023-05-03T04:08:37.191Z,29.30
2023-05-03T04:09:37.787Z,29.90
2023-05-03T04:10:37.183Z,26.30
2023-05-03T04:11:37.172Z,29.60
2023-05-03T04:12:37.167Z,27.40
2023-05-03T04:13:37.142Z,33.20
2023-05-03T04:14:37.192Z,28.50
2023-05-03T04:15:37.141Z,34.40
2023-05-03T04:16:37.148Z,35.50
2023-05-03T04:17:37.157Z,30.40
2023-05-03T04:18:37.132Z,31.20
2023-05-03T04:19:37.113Z,28.70
2023-05-03T04:20:37.122Z,29.00
2023-05-03T04:21:37.097Z,26.80
2023-05-03T04:22:37.101Z,29.60
2023-05-03T04:23:37.092Z,29.80
2023-05-03T04:24:37.060Z,28.50
2023-05-03T04:25:37.069Z,32.90
2023-05-03T04:26:37.060Z,27.40
2023-05-03T04:27:37.088Z,29.80
2023-05-03T04:28:37.040Z,29.00
2023-05-03T04:29:37.049Z,225.50
2023-05-03T04:30:37.078Z,57.30
2023-05-03T04:31:36.993Z,77.90
2023-05-03T04:32:37.091Z,502.50
2023-05-03T04:33:37.058Z,874.10
2023-05-03T04:34:37.010Z,957.10
2023-05-03T04:35:36.984Z,94.40
2023-05-03T04:36:36.958Z,24.30
2023-05-03T04:37:36.982Z,21.70
2023-05-03T04:38:36.986Z,18.70
2023-05-03T04:39:36.993Z,21.30
2023-05-03T04:40:36.937Z,15.30
2023-05-03T04:41:36.943Z,17.70
2023-05-03T04:42:36.985Z,19.10
2023-05-03T04:43:36.930Z,17.50
2023-05-03T04:44:36.923Z,16.10
2023-05-03T04:45:36.929Z,15.20
2023-05-03T04:46:37.022Z,15.50
2023-05-03T04:47:36.962Z,16.40
2023-05-03T04:48:36.885Z,12.70
2023-05-03T04:49:36.921Z,16.20
2023-05-03T04:50:36.882Z,11.60
2023-05-03T04:51:36.898Z,14.80
2023-05-03T04:52:36.844Z,15.20
2023-05-03T04:53:36.854Z,9.60
2023-05-03T04:54:36.853Z,11.40
2023-05-03T04:55:36.860Z,12.30
2023-05-03T04:56:36.836Z,11.40
2023-05-03T04:57:36.849Z,10.80
2023-05-03T04:58:36.887Z,12.30
2023-05-03T04:59:36.796Z,13.50
2023-05-03T05:00:36.824Z,12.50
2023-05-03T05:01:36.823Z,11.70
2023-05-03T05:02:36.837Z,12.20
2023-05-03T05:03:36.815Z,13.40
2023-05-03T05:04:36.759Z,11.30
2023-05-03T05:05:36.771Z,11.90
2023-05-03T05:06:36.784Z,10.90
2023-05-03T05:07:36.740Z,12.60
2023-05-03T05:08:36.717Z,10.60
2023-05-03T05:09:36.697Z,14.20
2023-05-03T05:10:36.729Z,16.10
2023-05-03T05:11:36.721Z,10.20
2023-05-03T05:12:36.704Z,13.40
2023-05-03T05:13:36.690Z,11.70
2023-05-03T05:14:36.688Z,13.40
2023-05-03T05:15:36.701Z,9.90
2023-05-03T05:16:36.833Z,10.00
2023-05-03T05:17:36.745Z,10.30
2023-05-03T05:18:36.713Z,9.40
2023-05-03T05:19:36.641Z,11.20
2023-05-03T05:20:36.611Z,10.50
2023-05-03T05:21:36.734Z,11.60
2023-05-03T05:22:36.645Z,11.10
2023-05-03T05:23:36.594Z,13.10
2023-05-03T05:24:36.584Z,12.90
2023-05-03T05:25:36.594Z,9.00
2023-05-03T05:26:36.589Z,9.10
2023-05-03T05:27:36.594Z,13.40
2023-05-03T05:28:36.580Z,13.90
2023-05-03T05:29:36.557Z,8.90
2023-05-03T05:30:36.560Z,9.10
2023-05-03T05:31:37.316Z,11.30
2023-05-03T05:32:36.769Z,8.70
2023-05-03T05:33:36.553Z,8.40
2023-05-03T05:34:43.902Z,9.20
2023-05-03T05:35:38.510Z,15.00
2023-05-03T05:36:36.514Z,9.20
2023-05-03T05:37:36.539Z,11.80
2023-05-03T05:38:36.532Z,10.40
2023-05-03T05:39:36.488Z,9.20
2023-05-03T05:40:36.492Z,9.10
2023-05-03T05:41:36.486Z,8.90
2023-05-03T05:42:36.463Z,8.60
2023-05-03T05:43:36.444Z,12.20
2023-05-03T05:44:36.448Z,9.90
2023-05-03T05:45:36.417Z,9.70
2023-05-03T05:46:36.461Z,11.10
2023-05-03T05:47:36.446Z,8.90
2023-05-03T05:48:36.437Z,9.70
2023-05-03T05:49:36.414Z,10.00
2023-05-03T05:50:36.393Z,10.30
2023-05-03T05:51:36.417Z,10.80
2023-05-03T05:52:36.385Z,9.50
2023-05-03T05:53:36.383Z,11.00
2023-05-03T05:54:36.357Z,9.20
2023-05-03T05:55:36.375Z,8.90
2023-05-03T05:56:36.349Z,9.90
2023-05-03T05:57:36.860Z,8.90
2023-05-03T05:58:36.341Z,7.80
2023-05-03T05:59:36.333Z,12.70
2023-05-03T06:00:36.328Z,12.20
2023-05-03T06:01:36.311Z,8.90
2023-05-03T06:02:36.454Z,9.30
2023-05-03T06:03:36.307Z,12.60
2023-05-03T06:04:36.311Z,11.50
2023-05-03T06:05:36.456Z,10.70
2023-05-03T06:06:36.316Z,8.50
2023-05-03T06:07:36.284Z,12.10
2023-05-03T06:08:36.256Z,9.20
2023-05-03T06:09:36.264Z,9.40
2023-05-03T06:10:36.250Z,11.30
2023-05-03T06:11:36.263Z,15.60
2023-05-03T06:12:36.218Z,9.30
2023-05-03T06:13:36.280Z,10.60
2023-05-03T06:14:36.225Z,8.20
2023-05-03T06:15:36.247Z,10.30
2023-05-03T06:16:36.210Z,8.20
2023-05-03T06:17:36.247Z,9.80
2023-05-03T06:18:36.209Z,12.90
2023-05-03T06:19:36.184Z,8.90
2023-05-03T06:20:36.167Z,8.50
2023-05-03T06:21:37.154Z,10.30
2023-05-03T06:22:36.810Z,9.90
2023-05-03T06:23:36.193Z,12.40
2023-05-03T06:24:36.184Z,12.70
2023-05-03T06:25:36.200Z,9.60
2023-05-03T06:26:36.199Z,8.60
2023-05-03T06:27:36.125Z,9.50
2023-05-03T06:28:36.110Z,12.30
2023-05-03T06:29:36.158Z,12.20
2023-05-03T06:30:36.097Z,9.00
2023-05-03T06:31:36.169Z,9.00
2023-05-03T06:32:36.135Z,10.30
2023-05-03T06:33:36.070Z,8.70
2023-05-03T06:34:36.060Z,8.50
2023-05-03T06:35:36.056Z,8.20
2023-05-03T06:36:36.050Z,9.80
2023-05-03T06:37:36.079Z,8.10
2023-05-03T06:38:36.051Z,9.70
2023-05-03T06:39:36.025Z,8.90
2023-05-03T06:40:38.303Z,10.70
2023-05-03T06:41:36.007Z,11.10
2023-05-03T06:42:36.014Z,9.30
2023-05-03T06:43:36.008Z,8.10
2023-05-03T06:44:35.980Z,9.00
2023-05-03T06:45:35.986Z,8.70
2023-05-03T06:46:36.039Z,9.80
2023-05-03T06:47:36.007Z,11.20
2023-05-03T06:48:36.016Z,11.10
2023-05-03T06:49:35.957Z,8.00
2023-05-03T06:50:36.016Z,8.10
2023-05-03T06:51:36.739Z,7.90
2023-05-03T06:52:35.936Z,9.90
2023-05-03T06:53:35.985Z,11.50
2023-05-03T06:54:35.920Z,8.00
2023-05-03T06:55:35.898Z,8.70
2023-05-03T06:56:35.891Z,8.50
2023-05-03T06:57:35.897Z,10.40
2023-05-03T06:58:35.878Z,8.00
2023-05-03T06:59:35.868Z,11.70
2023-05-03T07:00:35.884Z,11.30
2023-05-03T07:01:35.911Z,7.70
2023-05-03T07:02:35.933Z,8.90
2023-05-03T07:03:35.881Z,7.90
2023-05-03T07:04:35.855Z,7.60
2023-05-03T07:05:35.862Z,9.40
2023-05-03T07:06:48.145Z,10.20
2023-05-03T07:07:37.823Z,9.90
2023-05-03T07:08:35.805Z,7.20
2023-05-03T07:09:42.795Z,9.60
2023-05-03T07:10:37.811Z,7.80
2023-05-03T07:11:35.783Z,6.70
2023-05-03T07:12:35.768Z,7.20
2023-05-03T07:13:35.764Z,7.20
2023-05-03T07:14:35.812Z,8.00
2023-05-03T07:15:35.796Z,8.80
2023-05-03T07:16:35.822Z,8.80
2023-05-03T07:17:35.789Z,9.60
2023-05-03T07:18:35.743Z,7.00
2023-05-03T07:19:35.721Z,5.40
2023-05-03T07:20:35.777Z,5.50
2023-05-03T07:21:35.755Z,8.30
2023-05-03T07:22:35.709Z,5.50
2023-05-03T07:23:35.707Z,6.00
2023-05-03T07:24:35.701Z,5.50
2023-05-03T07:25:35.690Z,6.40
2023-05-03T07:26:35.676Z,5.10
2023-05-03T07:27:35.660Z,4.30
2023-05-03T07:28:35.650Z,5.50
2023-05-03T07:29:36.651Z,7.60
2023-05-03T07:30:35.724Z,5.80
2023-05-03T07:31:35.638Z,5.00
2023-05-03T07:32:35.775Z,6.40
2023-05-03T07:33:35.673Z,5.10
2023-05-03T07:34:35.605Z,6.70
2023-05-03T07:35:35.637Z,4.40
2023-05-03T07:36:35.638Z,9.30
2023-05-03T07:37:35.646Z,7.50
2023-05-03T07:38:35.592Z,5.70
2023-05-03T07:39:35.600Z,8.50
2023-05-03T07:40:35.576Z,6.90
2023-05-03T07:41:35.557Z,6.40
2023-05-03T07:42:35.556Z,4.90
2023-05-03T07:43:35.599Z,5.40
2023-05-03T07:44:35.568Z,5.60
2023-05-03T07:45:35.576Z,6.60
2023-05-03T07:46:35.694Z,4.30
2023-05-03T07:47:35.549Z,6.40
2023-05-03T07:48:35.518Z,6.40
2023-05-03T07:49:35.569Z,4.90
2023-05-03T07:50:35.532Z,8.30
2023-05-03T07:51:35.531Z,5.70
2023-05-03T07:52:35.488Z,6.60
2023-05-03T07:53:35.487Z,4.60
2023-05-03T07:54:35.521Z,4.00
2023-05-03T07:55:35.476Z,5.60
2023-05-03T07:56:35.490Z,6.00
2023-05-03T07:57:35.477Z,8.10
2023-05-03T07:58:40.750Z,3.90
2023-05-03T07:59:37.436Z,7.50
2023-05-03T08:00:35.453Z,4.00
2023-05-03T08:01:35.457Z,4.70
2023-05-03T08:02:35.533Z,6.20
2023-05-03T08:03:35.627Z,5.70
2023-05-03T08:04:35.517Z,3.90
2023-05-03T08:05:35.407Z,6.20
2023-05-03T08:06:35.511Z,5.30
2023-05-03T08:07:35.369Z,5.20
2023-05-03T08:08:35.439Z,5.50
2023-05-03T08:09:35.381Z,6.30
2023-05-03T08:10:35.356Z,5.40
2023-05-03T08:11:35.337Z,6.40
2023-05-03T08:12:35.360Z,4.80
2023-05-03T08:13:35.367Z,5.60
2023-05-03T08:14:35.331Z,5.60
2023-05-03T08:15:35.372Z,7.00
2023-05-03T08:16:35.322Z,5.80
2023-05-03T08:17:35.356Z,6.50
2023-05-03T08:18:35.317Z,4.50
2023-05-03T08:19:35.317Z,6.20
2023-05-03T08:20:35.327Z,5.70
2023-05-03T08:21:35.264Z,6.90
2023-05-03T08:22:35.265Z,8.30
2023-05-03T08:23:35.274Z,6.30
2023-05-03T08:24:35.314Z,5.10
2023-05-03T08:25:35.261Z,5.90
2023-05-03T08:26:35.241Z,4.80
2023-05-03T08:27:35.246Z,3.90
2023-05-03T08:28:35.227Z,5.00
2023-05-03T08:29:35.222Z,6.70
2023-05-03T08:30:35.201Z,6.20
2023-05-03T08:31:35.337Z,4.80
2023-05-03T08:32:35.273Z,6.60
2023-05-03T08:33:35.169Z,4.50
2023-05-03T08:34:35.180Z,6.40
2023-05-03T08:35:35.154Z,9.20
2023-05-03T08:36:35.173Z,5.70
2023-05-03T08:37:35.174Z,7.40
2023-05-03T08:38:35.142Z,4.90
2023-05-03T08:39:35.154Z,6.70
2023-05-03T08:40:35.162Z,7.30
2023-05-03T08:41:35.189Z,5.60
2023-05-03T08:42:35.135Z,4.10
2023-05-03T08:43:35.104Z,5.20
2023-05-03T08:44:35.080Z,5.60
2023-05-03T08:45:35.092Z,6.80
2023-05-03T08:46:35.133Z,4.90
2023-05-03T08:47:35.117Z,7.60
2023-05-03T08:48:35.055Z,5.50
2023-05-03T08:49:35.074Z,7.00
2023-05-03T08:50:35.096Z,6.40
2023-05-03T08:51:35.061Z,5.60
2023-05-03T08:52:35.031Z,8.80
2023-05-03T08:53:35.045Z,5.80
2023-05-03T08:54:35.046Z,5.70
2023-05-03T08:55:35.034Z,8.00
2023-05-03T08:56:35.004Z,7.40
2023-05-03T08:57:34.992Z,6.30
2023-05-03T08:58:35.010Z,7.30
2023-05-03T08:59:34.978Z,10.50
2023-05-03T09:00:34.999Z,6.70
2023-05-03T09:01:34.983Z,4.90
2023-05-03T09:02:35.231Z,6.40
2023-05-03T09:03:35.144Z,7.00
2023-05-03T09:04:35.131Z,10.70
2023-05-03T09:05:34.984Z,5.30
2023-05-03T09:06:34.978Z,7.20
2023-05-03T09:07:34.944Z,5.60
2023-05-03T09:08:34.911Z,7.70
2023-05-03T09:09:34.941Z,4.30
2023-05-03T09:10:34.897Z,7.50
2023-05-03T09:11:34.890Z,6.90
2023-05-03T09:12:34.898Z,11.30
2023-05-03T09:13:34.902Z,7.00
2023-05-03T09:14:34.902Z,9.10
2023-05-03T09:15:34.866Z,6.20
2023-05-03T09:16:34.874Z,6.50
2023-05-03T09:17:34.870Z,5.60
2023-05-03T09:18:35.863Z,5.20
2023-05-03T09:19:34.867Z,8.20
2023-05-03T09:20:34.835Z,8.10
2023-05-03T09:22:08.261Z,6.90
2023-05-03T09:23:41.382Z,5.70
2023-05-03T09:24:41.427Z,7.60
2023-05-03T09:25:42.589Z,9.00
2023-05-03T09:26:42.543Z,6.60
2023-05-03T09:27:42.523Z,7.20
2023-05-03T09:28:42.496Z,5.70
2023-05-03T09:29:42.526Z,5.60
2023-05-03T09:30:42.454Z,5.00
2023-05-03T09:31:42.542Z,7.70
2023-05-03T09:32:42.608Z,7.30
2023-05-03T09:33:42.469Z,8.90
2023-05-03T09:34:42.447Z,6.50
2023-05-03T09:35:42.462Z,5.80
2023-05-03T09:36:44.000Z,5.40
2023-05-03T09:37:43.453Z,7.00
2023-05-03T09:38:43.025Z,6.00
2023-05-03T09:39:42.427Z,4.30
2023-05-03T09:40:42.407Z,4.90
2023-05-03T09:41:42.420Z,8.80
2023-05-03T09:42:42.427Z,6.90
2023-05-03T09:43:42.401Z,5.20
2023-05-03T09:44:42.415Z,7.50
2023-05-03T09:45:42.425Z,5.60
2023-05-03T09:46:42.412Z,5.50
2023-05-03T09:47:42.403Z,5.40
2023-05-03T09:48:42.359Z,5.30
2023-05-03T09:49:42.347Z,6.80
2023-05-03T09:50:42.340Z,7.50
2023-05-03T09:51:42.343Z,5.00
2023-05-03T09:52:42.396Z,6.30
2023-05-03T09:53:42.336Z,4.00
2023-05-03T09:54:42.427Z,6.70
2023-05-03T09:55:42.364Z,4.30
2023-05-03T09:56:42.310Z,4.80
2023-05-03T09:57:42.288Z,5.10
2023-05-03T09:58:42.297Z,6.10
2023-05-03T09:59:42.262Z,6.00
2023-05-03T10:00:42.255Z,5.60
2023-05-03T10:01:42.309Z,5.90
2023-05-03T10:02:42.292Z,5.70
2023-05-03T10:03:42.269Z,5.00
2023-05-03T10:04:42.234Z,5.60
2023-05-03T10:05:42.243Z,5.10
2023-05-03T10:06:42.296Z,5.90
2023-05-03T10:07:42.268Z,5.60
2023-05-03T10:08:42.224Z,6.90
2023-05-03T10:09:42.244Z,6.20
2023-05-03T10:10:42.182Z,7.60
2023-05-03T10:11:42.216Z,7.20
2023-05-03T10:12:42.186Z,6.80
2023-05-03T10:13:42.199Z,6.20
2023-05-03T10:14:42.213Z,5.80
2023-05-03T10:15:42.164Z,6.00
2023-05-03T10:16:42.158Z,7.20
2023-05-03T10:18:43.144Z,5.00
2023-05-03T10:19:42.155Z,6.00
2023-05-03T10:20:42.149Z,4.80
2023-05-03T10:21:42.102Z,6.20
2023-05-03T10:22:42.090Z,5.20
2023-05-03T10:23:42.143Z,6.90
2023-05-03T10:24:42.140Z,6.10
2023-05-03T10:25:42.126Z,5.30
2023-05-03T10:26:42.086Z,5.90
2023-05-03T10:27:42.107Z,5.90
2023-05-03T10:28:42.084Z,8.30
2023-05-03T10:29:42.066Z,5.30
2023-05-03T10:30:42.108Z,4.90
2023-05-03T10:31:42.135Z,7.50
2023-05-03T10:32:42.099Z,5.40
2023-05-03T10:33:42.034Z,4.80
2023-05-03T10:34:42.772Z,5.50
2023-05-03T10:35:42.050Z,6.40
2023-05-03T10:36:49.328Z,5.60
2023-05-03T10:37:44.021Z,6.20
2023-05-03T10:38:41.990Z,6.40
2023-05-03T10:39:41.986Z,7.30
2023-05-03T10:40:42.051Z,6.00
2023-05-03T10:41:42.064Z,4.40
2023-05-03T10:42:41.959Z,3.90
2023-05-03T10:43:41.957Z,6.30
2023-05-03T10:44:42.042Z,4.60
2023-05-03T10:45:41.947Z,6.90
2023-05-03T10:46:42.059Z,5.30
2023-05-03T10:47:42.041Z,4.90
2023-05-03T10:48:41.938Z,4.60
2023-05-03T10:49:41.913Z,5.30
2023-05-03T10:50:41.959Z,4.30
2023-05-03T10:51:41.943Z,4.60
2023-05-03T10:52:41.921Z,7.70
2023-05-03T10:53:41.869Z,5.00
2023-05-03T10:54:41.877Z,8.30
2023-05-03T10:55:41.854Z,6.70
2023-05-03T10:56:41.866Z,9.70
2023-05-03T10:57:41.862Z,8.10
2023-05-03T10:58:41.815Z,7.00
2023-05-03T10:59:41.823Z,4.20
2023-05-03T11:00:41.806Z,12.00
2023-05-03T11:01:41.847Z,5.50
2023-05-03T11:02:41.807Z,4.90
2023-05-03T11:03:41.825Z,8.00
2023-05-03T11:04:41.881Z,5.40
2023-05-03T11:05:41.816Z,6.90
2023-05-03T11:06:41.869Z,4.70
2023-05-03T11:07:41.755Z,6.50
2023-05-03T11:08:41.789Z,5.80
2023-05-03T11:09:41.740Z,5.50
2023-05-03T11:10:41.762Z,5.60
2023-05-03T11:11:41.716Z,3.50
2023-05-03T11:12:42.719Z,5.90
2023-05-03T11:13:41.741Z,10.10
2023-05-03T11:14:41.717Z,5.60
2023-05-03T11:15:41.701Z,4.10
2023-05-03T11:16:41.793Z,6.00
2023-05-03T11:17:41.709Z,6.10
2023-05-03T11:18:41.650Z,4.20
2023-05-03T11:19:42.705Z,8.20
2023-05-03T11:20:42.691Z,6.20
2023-05-03T11:21:42.564Z,9.20
2023-05-03T11:22:41.652Z,4.70
2023-05-03T11:23:41.685Z,5.50
2023-05-03T11:24:41.657Z,6.50
2023-05-03T11:25:41.618Z,8.90
2023-05-03T11:26:41.621Z,4.30
2023-05-03T11:27:41.593Z,5.80
2023-05-03T11:28:41.585Z,4.60
2023-05-03T11:29:41.689Z,4.00
2023-05-03T11:30:41.562Z,4.90
2023-05-03T11:31:41.581Z,3.30
2023-05-03T11:32:41.593Z,4.90
2023-05-03T11:33:41.554Z,3.70
2023-05-03T11:34:41.570Z,3.40
2023-05-03T11:35:41.540Z,3.70
2023-05-03T11:36:41.578Z,3.40
2023-05-03T11:37:41.512Z,6.20
2023-05-03T11:38:41.502Z,4.40
2023-05-03T11:39:41.537Z,4.90
2023-05-03T11:40:41.498Z,5.90
2023-05-03T11:41:41.502Z,4.60
2023-05-03T11:42:41.528Z,4.40
2023-05-03T11:43:41.485Z,6.10
2023-05-03T11:44:41.482Z,5.20
2023-05-03T11:45:41.718Z,5.60
2023-05-03T11:46:41.586Z,6.00
2023-05-03T11:47:41.539Z,4.70
2023-05-03T11:48:41.486Z,8.20
2023-05-03T11:49:41.434Z,5.60
2023-05-03T11:50:41.438Z,6.20
2023-05-03T11:51:41.398Z,4.70
2023-05-03T11:52:41.468Z,5.60
2023-05-03T11:53:41.401Z,5.50
2023-05-03T11:54:41.388Z,4.00
2023-05-03T11:55:41.375Z,4.80
2023-05-03T11:56:41.414Z,5.10
2023-05-03T11:57:41.396Z,4.80
2023-05-03T11:58:41.432Z,3.80
2023-05-03T11:59:41.377Z,4.40
2023-05-03T12:00:41.357Z,4.80
2023-05-03T12:01:41.478Z,6.80
2023-05-03T12:02:41.571Z,5.10
2023-05-03T12:03:41.500Z,5.90
2023-05-03T12:04:42.107Z,4.90
2023-05-03T12:05:41.690Z,4.70
2023-05-03T12:06:43.724Z,4.90
2023-05-03T12:07:44.070Z,6.20
2023-05-03T12:08:43.244Z,8.50
2023-05-03T12:09:45.073Z,3.50
2023-05-03T12:10:43.148Z,4.30
2023-05-03T12:11:43.362Z,7.50
2023-05-03T12:12:44.082Z,5.80
2023-05-03T12:13:44.223Z,5.60
2023-05-03T12:14:41.916Z,3.80
2023-05-03T12:15:41.877Z,4.80
2023-05-03T12:16:41.342Z,3.20
2023-05-03T12:17:44.111Z,5.10
2023-05-03T12:18:42.373Z,7.80
2023-05-03T12:19:43.581Z,4.50
2023-05-03T12:21:43.539Z,4.70
2023-05-03T12:22:41.492Z,2.80
2023-05-03T12:23:41.280Z,3.70
2023-05-03T12:24:41.481Z,3.90
2023-05-03T12:25:44.449Z,5.90
2023-05-03T12:26:42.367Z,4.40
2023-05-03T12:27:41.240Z,4.60
2023-05-03T12:28:41.273Z,3.90
2023-05-03T12:29:41.875Z,4.90
2023-05-03T12:30:41.379Z,6.60
2023-05-03T12:31:43.929Z,5.80
2023-05-03T12:32:44.039Z,4.20
2023-05-03T12:33:43.529Z,6.00
2023-05-03T12:34:42.174Z,5.20
2023-05-03T12:35:41.552Z,6.00
2023-05-03T12:36:44.333Z,3.90
2023-05-03T12:37:43.663Z,6.70
2023-05-03T12:38:43.684Z,4.70
2023-05-03T12:39:45.587Z,4.90
2023-05-03T12:40:43.642Z,4.50
2023-05-03T12:42:06.042Z,5.30
2023-05-03T12:42:43.574Z,5.80
2023-05-03T12:43:43.622Z,5.10
2023-05-03T12:44:43.308Z,5.90
2023-05-03T12:45:46.870Z,4.40
2023-05-03T12:46:45.253Z,7.30
2023-05-03T12:47:44.461Z,4.30
2023-05-03T12:48:46.130Z,4.40
2023-05-03T12:49:45.662Z,6.40
2023-05-03T12:50:45.257Z,4.40
2023-05-03T12:51:42.945Z,9.00
2023-05-03T12:53:45.471Z,6.80
2023-05-03T12:54:42.466Z,6.90
2023-05-03T12:55:43.931Z,5.50
2023-05-03T12:56:42.405Z,3.60
2023-05-03T12:57:43.149Z,2.40
2023-05-03T12:58:58.399Z,6.20
2023-05-03T12:59:43.640Z,2.70
2023-05-03T13:03:44.624Z,6.20
2023-05-03T13:04:57.679Z,6.90
2023-05-03T13:05:43.368Z,3.30
2023-05-03T13:06:43.208Z,5.60
2023-05-03T13:07:43.361Z,5.50
2023-05-03T13:08:49.366Z,4.10
2023-05-03T13:10:42.946Z,3.10
2023-05-03T13:11:40.985Z,8.10
2023-05-03T13:12:40.826Z,4.60
2023-05-03T13:13:40.825Z,4.60
2023-05-03T13:14:40.919Z,2.80
2023-05-03T13:15:40.791Z,7.30
2023-05-03T13:16:40.824Z,5.00
2023-05-03T13:17:40.811Z,7.00
2023-05-03T13:18:40.788Z,4.40
2023-05-03T13:19:40.831Z,5.30
2023-05-03T13:20:40.776Z,5.20
2023-05-03T13:21:40.749Z,4.20
2023-05-03T13:22:40.761Z,6.60
2023-05-03T13:23:40.785Z,5.70
2023-05-03T13:24:40.751Z,5.30
2023-05-03T13:25:40.737Z,3.50
2023-05-03T13:26:40.722Z,3.20
2023-05-03T13:27:40.725Z,3.90
2023-05-03T13:28:40.691Z,3.00
2023-05-03T13:29:40.715Z,4.50